Time;durP1;ratioP1;P1;durP2;ratioP2;P2;SDS_P1;SDS_P2;PMS_P1;PMS_P2;Temp;Humidity;BMP_temperature;BMP_pressure;BME280_temperature;BME280_humidity;BME280_pressure;Samples;Min_cycle;Max_cycle;Signal;HPM_P1;HPM_P2
2021/12/09 00:04:43;;;;;;;10.67;8.63;;;16.40;48.70;;;;;;10495228;28;20218;-68
2021/12/09 00:10:08;;;;;;;12.50;9.70;;;16.40;48.60;;;;;;10496572;28;20235;-68
2021/12/09 00:15:32;;;;;;;11.00;8.67;;;16.50;48.60;;;;;;10504003;28;20217;-68
2021/12/09 00:20:54;;;;;;;11.57;9.27;;;16.50;48.60;;;;;;10521695;28;20197;-68
2021/12/09 00:26:16;;;;;;;13.23;8.97;;;16.40;48.60;;;;;;10496282;28;20235;-69
2021/12/09 00:31:40;;;;;;;11.33;9.60;;;16.40;48.60;;;;;;10502992;28;20714;-68
2021/12/09 00:37:16;;;;;;;10.53;8.77;;;16.40;48.60;;;;;;10495520;28;20223;-68
2021/12/09 00:42:39;;;;;;;13.77;9.77;;;16.50;48.50;;;;;;10496020;28;20188;-68
2021/12/09 00:48:02;;;;;;;13.00;9.83;;;16.50;48.40;;;;;;10494435;28;20697;-68
2021/12/09 00:53:25;;;;;;;10.53;8.73;;;16.50;48.90;;;;;;10525635;28;20192;-68
2021/12/09 00:58:49;;;;;;;12.07;9.37;;;16.50;48.30;;;;;;10535630;28;20321;-68
2021/12/09 01:04:13;;;;;;;11.23;9.60;;;16.50;48.50;;;;;;10533192;28;20206;-68
2021/12/09 01:09:36;;;;;;;12.03;9.63;;;16.50;48.50;;;;;;10536307;28;20216;-68
2021/12/09 01:14:58;;;;;;;12.83;10.10;;;16.50;48.40;;;;;;10533664;28;20196;-68
2021/12/09 01:20:25;;;;;;;14.13;10.57;;;16.50;48.30;;;;;;10493904;28;20192;-68
2021/12/09 01:25:48;;;;;;;13.43;10.27;;;16.50;48.10;;;;;;10493799;28;20582;-69
2021/12/09 01:31:10;;;;;;;12.57;9.97;;;16.50;48.10;;;;;;10505055;28;20212;-68
2021/12/09 01:36:36;;;;;;;13.07;9.63;;;16.60;48.20;;;;;;10491900;28;20250;-68
2021/12/09 01:42:00;;;;;;;12.13;9.67;;;16.50;48.30;;;;;;10491771;28;20199;-68
2021/12/09 01:47:22;;;;;;;12.90;9.60;;;16.50;48.30;;;;;;10509057;28;20220;-68
2021/12/09 01:52:46;;;;;;;13.97;10.67;;;16.50;48.20;;;;;;10533704;28;20207;-68
2021/12/09 01:58:08;;;;;;;14.83;10.80;;;16.50;48.00;;;;;;10527966;28;20216;-68
2021/12/09 02:03:30;;;;;;;12.97;10.57;;;16.50;47.90;;;;;;10500608;28;20203;-68
2021/12/09 02:08:55;;;;;;;12.60;10.17;;;16.50;47.90;;;;;;10526249;28;20224;-68
2021/12/09 02:14:17;;;;;;;13.80;10.27;;;16.50;48.00;;;;;;10537065;28;20199;-68
2021/12/09 02:19:43;;;;;;;12.63;9.60;;;16.50;48.20;;;;;;10490998;28;20239;-68
2021/12/09 02:25:07;;;;;;;16.20;11.67;;;16.50;48.00;;;;;;10502350;28;20196;-68
2021/12/09 02:30:29;;;;;;;13.80;10.33;;;16.50;47.70;;;;;;10491667;28;20212;-68
2021/12/09 02:35:51;;;;;;;12.43;10.30;;;16.60;47.60;;;;;;10499723;28;20227;-68
2021/12/09 02:41:18;;;;;;;14.20;10.33;;;16.50;47.70;;;;;;10532552;28;20188;-68
2021/12/09 02:46:41;;;;;;;14.77;10.77;;;16.50;48.00;;;;;;10517435;28;20673;-68
2021/12/09 02:52:05;;;;;;;15.00;10.87;;;16.50;48.00;;;;;;10491352;28;20299;-68
2021/12/09 02:57:28;;;;;;;13.43;10.60;;;16.50;47.80;;;;;;10495054;28;20708;-68
2021/12/09 03:02:50;;;;;;;14.13;11.47;;;16.50;47.70;;;;;;10493709;28;20201;-68
2021/12/09 03:08:18;;;;;;;16.47;11.10;;;16.60;47.50;;;;;;10492198;28;20209;-68
2021/12/09 03:13:44;;;;;;;12.17;10.43;;;16.60;47.50;;;;;;10491214;28;20618;-68
2021/12/09 03:19:09;;;;;;;14.50;11.07;;;16.50;47.60;;;;;;10528109;28;20216;-68
2021/12/09 03:24:31;;;;;;;14.13;10.33;;;16.60;47.80;;;;;;10539799;28;20208;-68
2021/12/09 03:29:55;;;;;;;14.17;10.90;;;16.50;47.70;;;;;;10540154;28;20216;-68
2021/12/09 03:35:17;;;;;;;16.03;11.03;;;16.50;47.60;;;;;;10522198;28;20646;-68
2021/12/09 03:40:39;;;;;;;14.97;11.63;;;16.50;47.40;;;;;;10498493;28;20184;-68
2021/12/09 03:46:03;;;;;;;15.20;11.20;;;16.50;47.30;;;;;;10522130;28;20212;-68
2021/12/09 03:51:26;;;;;;;15.00;10.90;;;16.60;47.30;;;;;;10497215;28;20223;-68
2021/12/09 03:56:48;;;;;;;15.37;11.53;;;16.60;47.30;;;;;;10498932;28;20220;-68
2021/12/09 04:02:12;;;;;;;14.23;10.80;;;16.50;47.50;;;;;;10496620;28;20197;-68
2021/12/09 04:07:34;;;;;;;13.97;10.90;;;16.50;47.50;;;;;;10495767;28;20259;-68
2021/12/09 04:12:57;;;;;;;14.60;10.97;;;16.50;47.30;;;;;;10495914;28;20322;-68
2021/12/09 04:18:21;;;;;;;16.23;11.47;;;16.50;47.10;;;;;;10496106;28;20299;-68
2021/12/09 04:23:43;;;;;;;15.57;11.03;;;16.60;47.00;;;;;;10496390;28;20661;-68
2021/12/09 04:29:07;;;;;;;15.97;11.93;;;16.60;47.00;;;;;;10496686;28;20721;-68
2021/12/09 04:34:30;;;;;;;14.73;11.03;;;16.50;47.10;;;;;;10502758;28;20193;-68
2021/12/09 04:39:52;;;;;;;16.17;11.57;;;16.50;47.30;;;;;;10552014;22;20314;-64
2021/12/09 04:45:15;;;;;;;15.80;11.63;;;16.50;47.20;;;;;;10547442;28;20195;-64
2021/12/09 04:50:40;;;;;;;13.60;10.00;;;16.60;47.30;;;;;;10525885;28;20219;-63
2021/12/09 04:56:02;;;;;;;14.00;10.50;;;16.60;47.80;;;;;;10535990;28;20219;-64
2021/12/09 05:01:25;;;;;;;15.13;10.60;;;16.70;47.70;;;;;;10536113;28;20191;-65
2021/12/09 05:06:48;;;;;;;16.47;12.30;;;16.70;47.40;;;;;;10529041;28;20207;-65
2021/12/09 05:12:12;;;;;;;17.63;13.47;;;16.80;46.70;;;;;;10535981;28;20703;-64
2021/12/09 05:17:34;;;;;;;16.40;11.77;;;16.80;46.40;;;;;;10534398;28;20211;-65
2021/12/09 05:22:57;;;;;;;14.50;11.57;;;16.80;46.50;;;;;;10499966;28;20200;-64
2021/12/09 05:28:29;;;;;;;16.20;11.93;;;16.80;46.50;;;;;;10494908;28;20208;-63
2021/12/09 05:33:52;;;;;;;14.20;11.33;;;16.80;46.40;;;;;;10492640;28;20683;-64
2021/12/09 05:39:15;;;;;;;14.00;10.47;;;16.90;46.70;;;;;;10494249;28;20220;-62
2021/12/09 05:44:38;;;;;;;16.73;12.93;;;16.90;46.60;;;;;;10492964;28;20205;-65
2021/12/09 05:50:01;;;;;;;17.90;12.47;;;16.90;46.20;;;;;;10491933;28;20215;-63
2021/12/09 05:55:24;;;;;;;16.23;12.30;;;16.90;46.20;;;;;;10499517;28;20406;-63
2021/12/09 06:00:48;;;;;;;20.57;14.50;;;16.90;45.90;;;;;;10490232;28;20197;-64
2021/12/09 06:06:11;;;;;;;18.53;13.00;;;16.90;45.80;;;;;;10504995;28;20219;-63
2021/12/09 06:11:35;;;;;;;17.53;12.20;;;16.90;45.80;;;;;;10491609;28;20223;-63
2021/12/09 06:16:57;;;;;;;16.20;12.10;;;16.90;45.80;;;;;;10488477;28;20220;-66
2021/12/09 06:22:19;;;;;;;20.87;13.93;;;16.90;45.70;;;;;;10493054;28;20188;-65
2021/12/09 06:27:43;;;;;;;20.17;16.40;;;16.90;45.70;;;;;;10487876;28;20414;-63
2021/12/09 06:33:06;;;;;;;18.50;13.07;;;17.40;44.40;;;;;;10491836;28;20588;-66
2021/12/09 06:38:28;;;;;;;18.70;12.63;;;17.00;45.40;;;;;;10529326;28;20228;-65
2021/12/09 06:43:51;;;;;;;15.83;12.93;;;16.90;45.80;;;;;;10528913;28;20195;-65
2021/12/09 06:49:14;;;;;;;18.67;12.70;;;16.80;46.10;;;;;;10533345;28;20216;-65
2021/12/09 06:54:36;;;;;;;18.00;13.30;;;16.70;46.50;;;;;;10532545;28;20199;-63
2021/12/09 07:00:00;;;;;;;17.40;13.13;;;16.70;46.80;;;;;;10536251;28;20585;-60
2021/12/09 07:05:24;;;;;;;17.83;12.67;;;16.60;46.90;;;;;;10524040;28;20192;-63
2021/12/09 07:10:47;;;;;;;17.83;13.70;;;16.60;46.80;;;;;;10498721;28;20212;-64
2021/12/09 07:16:10;;;;;;;17.60;12.47;;;16.50;46.90;;;;;;10498323;28;20350;-63
2021/12/09 07:21:32;;;;;;;17.60;13.00;;;16.50;47.10;;;;;;10497288;28;20539;-63
2021/12/09 07:26:54;;;;;;;18.13;12.57;;;16.50;47.30;;;;;;10498775;28;20220;-65
2021/12/09 07:32:18;;;;;;;19.20;13.03;;;16.50;47.30;;;;;;10497963;28;20216;-66
2021/12/09 07:37:41;;;;;;;19.33;13.53;;;16.50;47.10;;;;;;10521025;28;20230;-63
2021/12/09 07:43:04;;;;;;;18.93;13.80;;;16.50;46.90;;;;;;10521859;28;20226;-66
2021/12/09 07:48:28;;;;;;;20.27;14.97;;;16.40;46.90;;;;;;10519412;28;20219;-64
2021/12/09 07:53:50;;;;;;;20.60;14.77;;;16.50;46.80;;;;;;10509953;28;20216;-63
2021/12/09 07:59:12;;;;;;;19.37;14.00;;;16.60;46.80;;;;;;10504241;28;20675;-64
2021/12/09 08:04:36;;;;;;;22.20;15.67;;;16.60;46.60;;;;;;10528245;28;21612;-66
2021/12/09 08:09:58;;;;;;;19.50;13.87;;;16.70;46.50;;;;;;10515412;28;20223;-63
2021/12/09 08:15:20;;;;;;;21.67;14.83;;;16.70;46.50;;;;;;10517252;28;20200;-63
2021/12/09 08:20:44;;;;;;;20.63;14.67;;;16.60;46.40;;;;;;10513038;28;20573;-64
2021/12/09 08:26:06;;;;;;;20.60;14.43;;;16.60;46.70;;;;;;10525557;28;20649;-63
2021/12/09 08:31:32;;;;;;;17.43;13.03;;;16.50;47.00;;;;;;10515658;28;20216;-62
2021/12/09 08:36:57;;;;;;;17.73;13.50;;;16.50;47.20;;;;;;10512843;28;20220;-65
2021/12/09 08:42:19;;;;;;;20.87;13.73;;;16.40;47.20;;;;;;10506029;28;20192;-64
2021/12/09 08:47:43;;;;;;;18.73;13.97;;;16.40;47.30;;;;;;10503667;28;20581;-63
2021/12/09 08:53:09;;;;;;;17.80;13.37;;;16.40;47.50;;;;;;10517886;28;20227;-63
2021/12/09 08:58:31;;;;;;;22.63;14.10;;;16.40;47.70;;;;;;10518189;28;20219;-63
2021/12/09 09:03:53;;;;;;;21.23;15.03;;;16.40;47.80;;;;;;10506351;28;20189;-64
2021/12/09 09:09:17;;;;;;;20.03;14.40;;;16.30;47.60;;;;;;10506042;28;20228;-64
2021/12/09 09:14:39;;;;;;;22.43;15.10;;;16.40;47.30;;;;;;10512520;28;20216;-63
2021/12/09 09:20:01;;;;;;;21.17;14.60;;;16.40;47.90;;;;;;10512221;28;20688;-65
2021/12/09 09:25:29;;;;;;;21.90;15.63;;;16.50;47.30;;;;;;10510834;28;20570;-65
2021/12/09 09:30:56;;;;;;;22.33;15.20;;;16.60;46.90;;;;;;10510302;28;20220;-64
2021/12/09 09:36:18;;;;;;;21.53;15.87;;;16.80;46.70;;;;;;10511515;28;20261;-63
2021/12/09 09:41:42;;;;;;;22.53;16.10;;;16.80;46.30;;;;;;10515681;28;20214;-64
2021/12/09 09:47:04;;;;;;;20.63;14.80;;;16.90;46.10;;;;;;10515404;28;20232;-63
2021/12/09 09:52:27;;;;;;;21.40;15.57;;;16.90;46.30;;;;;;10510869;28;20217;-63
2021/12/09 09:57:52;;;;;;;21.23;14.87;;;16.80;46.60;;;;;;10514252;28;20230;-63
2021/12/09 10:03:17;;;;;;;21.30;15.20;;;16.80;46.80;;;;;;10511570;28;20196;-64
2021/12/09 10:08:41;;;;;;;21.83;15.77;;;16.70;47.00;;;;;;10517750;28;20221;-65
2021/12/09 10:14:13;;;;;;;22.40;15.77;;;16.70;47.00;;;;;;10511423;28;20223;-64
2021/12/09 10:19:37;;;;;;;22.93;15.20;;;16.60;47.00;;;;;;10504317;28;20216;-65
2021/12/09 10:25:02;;;;;;;23.10;16.33;;;16.60;47.20;;;;;;10510691;28;20200;-64
2021/12/09 10:30:25;;;;;;;22.90;15.10;;;16.60;47.40;;;;;;10501812;28;20227;-63
2021/12/09 10:35:48;;;;;;;20.33;14.67;;;16.60;47.50;;;;;;10505103;28;20211;-63
2021/12/09 10:41:34;;;;;;;23.83;16.80;;;16.50;47.60;;;;;;10552864;22;20246;-65
2021/12/09 10:47:07;;;;;;;23.97;15.53;;;16.60;47.50;;;;;;10539890;28;20199;-65
2021/12/09 10:52:38;;;;;;;24.00;17.00;;;16.50;47.20;;;;;;10492638;28;20215;-65
2021/12/09 10:58:05;;;;;;;22.00;16.37;;;16.60;47.10;;;;;;10491029;28;20215;-65
2021/12/09 11:03:33;;;;;;;22.90;15.23;;;16.60;46.80;;;;;;10477131;28;20561;-65
2021/12/09 11:08:58;;;;;;;21.77;15.43;;;16.70;46.90;;;;;;10503814;28;20216;-64
2021/12/09 11:14:23;;;;;;;21.43;15.63;;;16.70;46.90;;;;;;10509358;28;20703;-66
2021/12/09 11:19:48;;;;;;;23.00;16.53;;;16.70;47.10;;;;;;10509455;28;20301;-65
2021/12/09 11:25:32;;;;;;;20.77;15.60;;;16.60;47.20;;;;;;10492028;28;20229;-66
2021/12/09 11:31:10;;;;;;;23.03;16.87;;;16.60;47.10;;;;;;10510671;28;20226;-64
2021/12/09 11:36:47;;;;;;;21.63;14.93;;;16.60;47.20;;;;;;10488511;28;20193;-65
2021/12/09 11:42:19;;;;;;;24.30;16.30;;;16.60;47.50;;;;;;10520201;28;20202;-65
2021/12/09 11:47:43;;;;;;;20.30;15.33;;;16.60;47.70;;;;;;10528645;28;20220;-65
2021/12/09 11:53:10;;;;;;;21.40;15.43;;;16.60;47.80;;;;;;10536852;28;20224;-65
2021/12/09 11:58:39;;;;;;;22.50;16.27;;;16.60;47.80;;;;;;10532824;28;20678;-65
2021/12/09 12:15:48;;;;;;;20.97;15.37;;;16.70;47.40;;;;;;10531250;28;20663;-65
2021/12/09 12:27:47;;;;;;;24.37;16.37;;;16.90;48.20;;;;;;10493202;28;20216;-65
2021/12/09 12:39:15;;;;;;;27.97;18.27;;;17.00;47.40;;;;;;10497836;28;20269;-65
2021/12/09 12:45:23;;;;;;;26.10;17.43;;;17.00;46.40;;;;;;10496689;28;20228;-65
2021/12/09 12:51:07;;;;;;;23.20;16.13;;;17.00;46.50;;;;;;10498126;28;20224;-65
2021/12/09 12:56:32;;;;;;;24.10;16.27;;;17.00;46.60;;;;;;10499642;28;20706;-65
2021/12/09 13:02:25;;;;;;;25.40;15.83;;;16.90;46.90;;;;;;10499355;28;20224;-66
2021/12/09 13:08:06;;;;;;;23.43;17.23;;;16.90;47.10;;;;;;10489375;28;20212;-72
2021/12/09 13:13:40;;;;;;;24.53;16.53;;;16.90;47.20;;;;;;10488649;28;20205;-70
2021/12/09 13:19:09;;;;;;;22.77;15.20;;;16.80;47.30;;;;;;10497842;28;20248;-71
2021/12/09 13:24:40;;;;;;;23.07;15.77;;;16.70;47.60;;;;;;10503256;28;20599;-69
2021/12/09 13:30:26;;;;;;;22.40;16.47;;;16.70;48.00;;;;;;10490954;28;20227;-71
2021/12/09 13:47:34;;;;;;;24.13;16.87;;;16.60;48.60;;;;;;10483936;28;20678;-70
2021/12/09 13:58:38;;;;;;;23.57;16.20;;;16.70;48.10;;;;;;10485034;28;20227;-70
2021/12/09 14:04:07;;;;;;;21.03;14.33;;;16.80;47.90;;;;;;10482634;28;20197;-67
2021/12/09 14:09:31;;;;;;;26.08;19.50;;;16.90;48.20;;;;;;10495384;28;20427;-66
2021/12/09 14:15:03;;;;;;;21.13;16.57;;;17.80;46.10;;;;;;10493950;28;20212;-65
2021/12/09 14:20:25;;;;;;;24.67;17.10;;;17.50;46.10;;;;;;10509197;28;20212;-66
2021/12/09 14:25:49;;;;;;;25.60;16.93;;;17.30;46.30;;;;;;10489090;28;20195;-67
2021/12/09 14:31:11;;;;;;;24.33;16.93;;;17.20;46.60;;;;;;10496994;28;20592;-67
2021/12/09 14:36:34;;;;;;;24.37;16.50;;;17.10;47.20;;;;;;10497322;28;20200;-67
2021/12/09 14:42:16;;;;;;;25.27;17.07;;;16.90;47.50;;;;;;10496580;28;20224;-66
2021/12/09 14:47:39;;;;;;;24.00;17.10;;;16.80;47.80;;;;;;10508010;28;20572;-66
2021/12/09 14:53:01;;;;;;;22.43;16.13;;;16.80;48.10;;;;;;10502184;28;20265;-67
2021/12/09 14:58:24;;;;;;;23.80;16.43;;;16.80;48.10;;;;;;10515193;28;20305;-66
2021/12/09 15:03:57;;;;;;;22.07;15.37;;;16.80;48.10;;;;;;10499913;28;20207;-67
2021/12/09 15:09:20;;;;;;;22.53;15.10;;;16.80;48.30;;;;;;10498114;28;20254;-66
2021/12/09 15:14:44;;;;;;;21.80;15.00;;;16.70;48.40;;;;;;10502572;28;20245;-66
2021/12/09 15:20:08;;;;;;;22.43;15.10;;;16.70;48.50;;;;;;10506771;28;20594;-66
2021/12/09 15:25:32;;;;;;;19.80;14.83;;;16.70;48.50;;;;;;10523817;28;20929;-66
2021/12/09 15:30:57;;;;;;;23.47;16.33;;;16.70;48.40;;;;;;10486661;28;20217;-67
2021/12/09 15:36:25;;;;;;;24.90;16.90;;;16.70;48.10;;;;;;10519121;28;20215;-66
2021/12/09 15:41:51;;;;;;;22.30;15.70;;;16.70;47.70;;;;;;10521026;28;20618;-67
2021/12/09 15:47:17;;;;;;;22.17;15.23;;;16.80;47.60;;;;;;10507329;28;20866;-66
2021/12/09 15:52:44;;;;;;;21.43;15.97;;;16.90;47.50;;;;;;10513543;28;20226;-66
2021/12/09 15:58:08;;;;;;;25.23;16.90;;;16.90;47.40;;;;;;10507058;28;20574;-66
2021/12/09 16:03:32;;;;;;;22.83;15.85;;;16.90;47.50;;;;;;10520831;28;20078;-66
2021/12/09 16:08:54;;;;;;;23.43;16.07;;;16.90;47.70;;;;;;10493689;28;20215;-67
2021/12/09 16:14:21;;;;;;;20.67;15.23;;;16.90;48.10;;;;;;10525226;28;20227;-66
2021/12/09 16:19:48;;;;;;;19.93;14.60;;;16.80;48.20;;;;;;10515604;28;20216;-66
2021/12/09 16:25:13;;;;;;;23.17;15.50;;;16.80;48.50;;;;;;10502108;28;20659;-66
2021/12/09 16:30:35;;;;;;;22.37;15.20;;;16.80;48.60;;;;;;10513060;28;20220;-65
2021/12/09 16:35:59;;;;;;;22.67;16.07;;;16.80;48.80;;;;;;10508472;28;20243;-65
2021/12/09 16:41:22;;;;;;;22.93;15.40;;;16.70;48.90;;;;;;10497988;22;20298;-60
2021/12/09 16:46:45;;;;;;;20.70;15.67;;;16.70;48.90;;;;;;10474099;28;20217;-62
2021/12/09 16:52:09;;;;;;;23.00;16.57;;;16.70;49.00;;;;;;10446760;28;20288;-63
2021/12/09 16:57:41;;;;;;;20.10;15.23;;;16.70;49.20;;;;;;10428076;28;20216;-63
2021/12/09 17:03:04;;;;;;;26.47;17.20;;;16.70;49.10;;;;;;10414122;28;20224;-62
2021/12/09 17:08:28;;;;;;;21.50;16.10;;;16.60;48.60;;;;;;10443493;28;20222;-64
2021/12/09 17:13:50;;;;;;;23.70;16.23;;;16.70;48.30;;;;;;10410565;28;20228;-63
2021/12/09 17:19:13;;;;;;;23.60;15.83;;;16.80;48.20;;;;;;10447703;28;20225;-62
2021/12/09 17:24:37;;;;;;;23.07;16.07;;;17.00;48.00;;;;;;10437047;28;20197;-63
2021/12/09 17:30:06;;;;;;;21.30;16.47;;;17.10;47.70;;;;;;10436012;28;20305;-63
2021/12/09 17:35:32;;;;;;;25.97;16.10;;;17.20;47.40;;;;;;10450371;28;20223;-65
2021/12/09 17:40:57;;;;;;;21.17;16.07;;;17.20;48.00;;;;;;10448582;28;20217;-62
2021/12/09 17:46:19;;;;;;;20.77;15.20;;;17.10;48.20;;;;;;10446848;28;20991;-61
2021/12/09 17:51:47;;;;;;;22.13;15.27;;;17.10;48.40;;;;;;10434174;28;20232;-62
2021/12/09 17:57:10;;;;;;;24.60;16.60;;;17.00;48.60;;;;;;10431865;28;20710;-61
2021/12/09 18:02:34;;;;;;;21.97;15.40;;;16.90;48.60;;;;;;10446057;28;20193;-62
2021/12/09 18:07:58;;;;;;;23.67;16.17;;;16.80;48.60;;;;;;10448918;28;20274;-62
2021/12/09 18:13:22;;;;;;;19.80;14.43;;;16.90;48.80;;;;;;10432474;28;20228;-61
2021/12/09 18:18:44;;;;;;;20.83;15.07;;;16.80;48.80;;;;;;10445167;28;20586;-61
2021/12/09 18:24:08;;;;;;;20.37;14.47;;;16.80;48.90;;;;;;10443355;28;20646;-62
2021/12/09 18:29:31;;;;;;;21.60;14.47;;;16.80;49.10;;;;;;10431296;28;20216;-62
2021/12/09 18:34:56;;;;;;;19.20;13.07;;;16.80;49.10;;;;;;10442836;28;20232;-62
2021/12/09 18:40:19;;;;;;;21.23;14.80;;;16.80;49.70;;;;;;10433688;28;20414;-62
2021/12/09 18:45:43;;;;;;;21.13;14.83;;;16.80;48.90;;;;;;10425659;28;20578;-63
2021/12/09 18:51:13;;;;;;;21.90;15.20;;;16.80;48.40;;;;;;10439334;28;20547;-61
2021/12/09 18:56:36;;;;;;;22.03;15.07;;;16.90;48.40;;;;;;10447645;28;20217;-62
2021/12/09 19:02:01;;;;;;;21.73;15.40;;;16.90;48.00;;;;;;10451305;28;20281;-61
2021/12/09 19:07:24;;;;;;;20.83;15.23;;;17.00;47.80;;;;;;10445028;28;20217;-62
2021/12/09 19:12:46;;;;;;;24.13;15.53;;;17.10;47.70;;;;;;10444647;28;20586;-62
2021/12/09 19:18:25;;;;;;;22.67;16.53;;;17.20;47.40;;;;;;10445252;28;20216;-62
2021/12/09 19:23:47;;;;;;;21.50;15.37;;;17.20;47.30;;;;;;10442726;28;20194;-62
2021/12/09 19:29:10;;;;;;;19.50;14.30;;;17.20;47.30;;;;;;10445125;28;20229;-62
2021/12/09 19:34:33;;;;;;;21.13;14.23;;;17.10;47.60;;;;;;10449287;28;20248;-62
2021/12/09 19:39:56;;;;;;;22.27;15.73;;;17.00;48.10;;;;;;10440888;28;20224;-60
2021/12/09 19:45:18;;;;;;;18.87;13.23;;;17.00;48.20;;;;;;10441204;28;20852;-59
2021/12/09 19:50:43;;;;;;;20.67;14.00;;;17.00;48.40;;;;;;10449552;28;20201;-61
2021/12/09 19:56:06;;;;;;;20.08;16.27;;;16.90;48.60;;;;;;10432859;28;20428;-64
2021/12/09 20:01:30;;;;;;;19.60;13.93;;;17.50;48.10;;;;;;10450868;28;20193;-63
2021/12/09 20:06:54;;;;;;;19.17;14.00;;;17.10;48.40;;;;;;10453858;28;20240;-60
2021/12/09 20:12:16;;;;;;;19.33;13.60;;;16.90;49.00;;;;;;10438209;28;20225;-62
2021/12/09 20:17:39;;;;;;;19.00;13.80;;;16.90;49.40;;;;;;10443961;28;20225;-63
2021/12/09 20:23:02;;;;;;;19.23;13.17;;;16.90;49.30;;;;;;10444002;28;20200;-60
2021/12/09 20:28:25;;;;;;;19.67;13.90;;;16.90;49.10;;;;;;10432460;28;20236;-60
2021/12/09 20:33:47;;;;;;;19.43;13.87;;;16.90;48.80;;;;;;10449861;28;20221;-61
2021/12/09 20:39:11;;;;;;;17.67;13.37;;;16.90;48.70;;;;;;10447657;28;20228;-64
2021/12/09 20:44:33;;;;;;;16.30;12.03;;;16.90;48.70;;;;;;10445860;28;20201;-61
2021/12/09 20:49:55;;;;;;;15.27;12.60;;;17.00;48.80;;;;;;10450694;28;20284;-63
2021/12/09 20:55:19;;;;;;;18.40;12.40;;;16.90;49.00;;;;;;10453880;28;20219;-63
2021/12/09 21:00:42;;;;;;;18.50;13.10;;;16.90;49.00;;;;;;10421173;28;20212;-61
2021/12/09 21:06:06;;;;;;;18.00;12.77;;;16.90;49.30;;;;;;10442800;28;20225;-62
2021/12/09 21:11:30;;;;;;;17.40;13.00;;;16.90;49.30;;;;;;10444171;28;20211;-62
2021/12/09 21:16:52;;;;;;;17.10;12.37;;;16.90;49.40;;;;;;10444889;28;20582;-63
2021/12/09 21:22:14;;;;;;;16.10;12.70;;;16.80;49.30;;;;;;10447475;28;20262;-64
2021/12/09 21:27:39;;;;;;;17.20;12.13;;;16.80;48.90;;;;;;10446360;28;20223;-65
2021/12/09 21:33:01;;;;;;;18.87;13.10;;;16.90;48.70;;;;;;10447425;28;20679;-62
2021/12/09 21:38:23;;;;;;;18.43;13.43;;;16.90;48.40;;;;;;10446223;28;20292;-64
2021/12/09 21:43:47;;;;;;;18.53;13.67;;;17.00;48.00;;;;;;10447648;28;20189;-64
2021/12/09 21:49:10;;;;;;;17.13;13.07;;;17.10;47.80;;;;;;10420477;28;20220;-60
2021/12/09 21:54:34;;;;;;;17.13;12.67;;;17.00;48.10;;;;;;10451935;28;20228;-62
2021/12/09 21:59:58;;;;;;;17.53;12.37;;;16.90;48.40;;;;;;10447480;28;20588;-61
2021/12/09 22:05:23;;;;;;;17.33;12.57;;;16.80;48.70;;;;;;10410332;28;20205;-63
2021/12/09 22:10:45;;;;;;;18.70;12.43;;;16.80;48.90;;;;;;10450412;28;20205;-65
2021/12/09 22:16:16;;;;;;;14.33;11.13;;;16.70;49.10;;;;;;10449266;28;20220;-59
2021/12/09 22:21:38;;;;;;;16.30;10.67;;;16.70;49.20;;;;;;10451011;28;20670;-63
2021/12/09 22:27:02;;;;;;;18.20;12.60;;;16.60;49.40;;;;;;10410014;28;20249;-61
2021/12/09 22:32:25;;;;;;;16.27;11.97;;;16.60;49.50;;;;;;10409097;28;20282;-64
2021/12/09 22:37:47;;;;;;;16.70;11.93;;;16.60;49.40;;;;;;10409840;28;20683;-64
2021/12/09 22:43:09;;;;;;;16.43;11.60;;;16.60;49.30;;;;;;10550034;22;20231;-65
2021/12/09 22:48:33;;;;;;;17.83;12.10;;;16.60;49.20;;;;;;10530204;28;20195;-65
2021/12/09 22:53:57;;;;;;;18.87;12.17;;;16.70;49.00;;;;;;10478043;28;20220;-65
2021/12/09 22:59:19;;;;;;;16.53;11.33;;;16.70;48.80;;;;;;10481749;28;20678;-66
2021/12/09 23:04:43;;;;;;;17.83;11.97;;;16.70;48.90;;;;;;10491082;28;20574;-65
2021/12/09 23:10:06;;;;;;;18.87;12.37;;;16.70;48.80;;;;;;10489727;28;20220;-66
2021/12/09 23:15:28;;;;;;;15.43;11.20;;;16.60;48.60;;;;;;10458850;28;20684;-65
2021/12/09 23:20:54;;;;;;;16.17;11.47;;;16.70;48.50;;;;;;10467872;28;20301;-65
2021/12/09 23:26:16;;;;;;;16.23;12.37;;;16.70;48.40;;;;;;10489114;28;20189;-66
2021/12/09 23:31:38;;;;;;;14.73;11.40;;;16.70;48.50;;;;;;10490856;28;20220;-65
2021/12/09 23:37:02;;;;;;;14.77;10.37;;;16.60;48.70;;;;;;10449909;28;20213;-65
2021/12/09 23:42:24;;;;;;;14.27;10.17;;;16.60;48.80;;;;;;10459275;28;20221;-65
2021/12/09 23:47:46;;;;;;;15.50;10.67;;;16.60;48.80;;;;;;10482302;28;20193;-65
2021/12/09 23:53:10;;;;;;;15.87;10.60;;;16.60;48.90;;;;;;10499544;28;20216;-65
2021/12/09 23:58:33;;;;;;;14.83;10.17;;;16.60;49.00;;;;;;10497755;28;20601;-65
